sensor_id;sensor_type;location;lat;lon;timestamp;P1;durP1;ratioP1;P2;durP2;ratioP2
61572;SDS011;47465;43.094;12.434;2023-12-20T00:00:57;42.22;;;21.88;;
61572;SDS011;47465;43.094;12.434;2023-12-20T00:03:23;41.58;;;22.83;;
61572;SDS011;47465;43.094;12.434;2023-12-20T00:05:49;42.97;;;22.00;;
61572;SDS011;47465;43.094;12.434;2023-12-20T00:08:15;45.72;;;22.08;;
61572;SDS011;47465;43.094;12.434;2023-12-20T00:10:41;39.55;;;19.95;;
61572;SDS011;47465;43.094;12.434;2023-12-20T00:13:07;44.83;;;21.40;;
61572;SDS011;47465;43.094;12.434;2023-12-20T00:15:34;36.50;;;20.27;;
61572;SDS011;47465;43.094;12.434;2023-12-20T00:18:00;36.08;;;18.75;;
61572;SDS011;47465;43.094;12.434;2023-12-20T00:20:26;30.17;;;16.67;;
61572;SDS011;47465;43.094;12.434;2023-12-20T00:22:52;40.95;;;21.02;;
61572;SDS011;47465;43.094;12.434;2023-12-20T00:25:19;41.80;;;20.40;;
61572;SDS011;47465;43.094;12.434;2023-12-20T00:27:44;42.05;;;19.63;;
61572;SDS011;47465;43.094;12.434;2023-12-20T00:30:11;46.05;;;21.42;;
61572;SDS011;47465;43.094;12.434;2023-12-20T00:32:38;38.50;;;20.42;;
61572;SDS011;47465;43.094;12.434;2023-12-20T00:35:04;35.33;;;18.40;;
61572;SDS011;47465;43.094;12.434;2023-12-20T00:37:30;37.65;;;17.58;;
61572;SDS011;47465;43.094;12.434;2023-12-20T00:39:56;33.47;;;18.25;;
61572;SDS011;47465;43.094;12.434;2023-12-20T00:42:22;33.00;;;18.17;;
61572;SDS011;47465;43.094;12.434;2023-12-20T00:44:47;36.80;;;19.98;;
61572;SDS011;47465;43.094;12.434;2023-12-20T00:47:13;40.78;;;19.77;;
61572;SDS011;47465;43.094;12.434;2023-12-20T00:49:40;37.85;;;19.20;;
61572;SDS011;47465;43.094;12.434;2023-12-20T00:52:07;34.67;;;19.90;;
61572;SDS011;47465;43.094;12.434;2023-12-20T00:54:32;35.67;;;17.73;;
61572;SDS011;47465;43.094;12.434;2023-12-20T00:56:59;35.13;;;19.35;;
61572;SDS011;47465;43.094;12.434;2023-12-20T00:59:25;41.15;;;18.77;;
61572;SDS011;47465;43.094;12.434;2023-12-20T01:01:51;38.60;;;19.73;;
61572;SDS011;47465;43.094;12.434;2023-12-20T01:04:16;41.42;;;21.92;;
61572;SDS011;47465;43.094;12.434;2023-12-20T01:06:44;38.83;;;18.98;;
61572;SDS011;47465;43.094;12.434;2023-12-20T01:09:09;39.03;;;19.70;;
61572;SDS011;47465;43.094;12.434;2023-12-20T01:11:35;40.50;;;19.92;;
61572;SDS011;47465;43.094;12.434;2023-12-20T01:14:01;37.83;;;19.13;;
61572;SDS011;47465;43.094;12.434;2023-12-20T01:16:27;38.95;;;19.83;;
61572;SDS011;47465;43.094;12.434;2023-12-20T01:18:53;38.50;;;18.55;;
61572;SDS011;47465;43.094;12.434;2023-12-20T01:21:19;38.22;;;18.70;;
61572;SDS011;47465;43.094;12.434;2023-12-20T01:23:46;36.08;;;18.30;;
61572;SDS011;47465;43.094;12.434;2023-12-20T01:26:12;35.60;;;17.38;;
61572;SDS011;47465;43.094;12.434;2023-12-20T01:28:39;44.10;;;19.30;;
61572;SDS011;47465;43.094;12.434;2023-12-20T01:31:05;34.00;;;18.00;;
61572;SDS011;47465;43.094;12.434;2023-12-20T01:33:31;40.50;;;19.60;;
61572;SDS011;47465;43.094;12.434;2023-12-20T01:35:57;36.63;;;19.67;;
61572;SDS011;47465;43.094;12.434;2023-12-20T01:38:23;41.95;;;20.55;;
61572;SDS011;47465;43.094;12.434;2023-12-20T01:40:50;37.28;;;19.35;;
61572;SDS011;47465;43.094;12.434;2023-12-20T01:43:16;38.78;;;19.42;;
61572;SDS011;47465;43.094;12.434;2023-12-20T01:45:42;34.05;;;19.73;;
61572;SDS011;47465;43.094;12.434;2023-12-20T01:48:08;41.40;;;20.48;;
61572;SDS011;47465;43.094;12.434;2023-12-20T01:50:35;34.60;;;18.40;;
61572;SDS011;47465;43.094;12.434;2023-12-20T01:53:02;34.20;;;17.13;;
61572;SDS011;47465;43.094;12.434;2023-12-20T01:55:31;36.45;;;17.48;;
61572;SDS011;47465;43.094;12.434;2023-12-20T01:58:01;36.95;;;17.00;;
61572;SDS011;47465;43.094;12.434;2023-12-20T02:00:28;33.78;;;19.17;;
61572;SDS011;47465;43.094;12.434;2023-12-20T02:02:55;36.15;;;17.35;;
61572;SDS011;47465;43.094;12.434;2023-12-20T02:05:22;32.80;;;17.10;;
61572;SDS011;47465;43.094;12.434;2023-12-20T02:07:49;35.17;;;17.17;;
61572;SDS011;47465;43.094;12.434;2023-12-20T02:10:15;38.15;;;19.63;;
61572;SDS011;47465;43.094;12.434;2023-12-20T02:12:42;38.10;;;20.08;;
61572;SDS011;47465;43.094;12.434;2023-12-20T02:15:09;38.88;;;19.90;;
61572;SDS011;47465;43.094;12.434;2023-12-20T02:17:35;39.45;;;19.92;;
61572;SDS011;47465;43.094;12.434;2023-12-20T02:20:04;39.13;;;19.10;;
61572;SDS011;47465;43.094;12.434;2023-12-20T02:22:34;29.73;;;16.33;;
61572;SDS011;47465;43.094;12.434;2023-12-20T02:25:00;36.30;;;18.58;;
61572;SDS011;47465;43.094;12.434;2023-12-20T02:27:26;39.33;;;19.25;;
61572;SDS011;47465;43.094;12.434;2023-12-20T02:29:54;38.92;;;18.88;;
61572;SDS011;47465;43.094;12.434;2023-12-20T02:32:20;32.72;;;17.95;;
61572;SDS011;47465;43.094;12.434;2023-12-20T02:34:47;36.42;;;16.95;;
61572;SDS011;47465;43.094;12.434;2023-12-20T02:37:13;40.30;;;18.70;;
61572;SDS011;47465;43.094;12.434;2023-12-20T02:39:40;32.53;;;17.30;;
61572;SDS011;47465;43.094;12.434;2023-12-20T02:42:06;33.08;;;17.38;;
61572;SDS011;47465;43.094;12.434;2023-12-20T02:44:32;33.13;;;17.50;;
61572;SDS011;47465;43.094;12.434;2023-12-20T02:46:58;36.63;;;17.67;;
61572;SDS011;47465;43.094;12.434;2023-12-20T02:49:24;32.58;;;17.23;;
61572;SDS011;47465;43.094;12.434;2023-12-20T02:51:50;37.15;;;17.58;;
61572;SDS011;47465;43.094;12.434;2023-12-20T02:54:16;34.33;;;18.10;;
61572;SDS011;47465;43.094;12.434;2023-12-20T02:56:43;33.90;;;16.88;;
61572;SDS011;47465;43.094;12.434;2023-12-20T02:59:09;29.50;;;17.88;;
61572;SDS011;47465;43.094;12.434;2023-12-20T03:01:36;33.92;;;17.55;;
61572;SDS011;47465;43.094;12.434;2023-12-20T03:04:07;30.85;;;16.35;;
61572;SDS011;47465;43.094;12.434;2023-12-20T03:06:33;33.00;;;15.25;;
61572;SDS011;47465;43.094;12.434;2023-12-20T03:08:59;31.05;;;15.88;;
61572;SDS011;47465;43.094;12.434;2023-12-20T03:11:26;29.45;;;16.23;;
61572;SDS011;47465;43.094;12.434;2023-12-20T03:13:53;33.08;;;18.45;;
61572;SDS011;47465;43.094;12.434;2023-12-20T03:16:19;27.98;;;15.30;;
61572;SDS011;47465;43.094;12.434;2023-12-20T03:18:45;29.77;;;15.18;;
61572;SDS011;47465;43.094;12.434;2023-12-20T03:21:14;37.72;;;16.60;;
61572;SDS011;47465;43.094;12.434;2023-12-20T03:23:40;32.88;;;15.05;;
61572;SDS011;47465;43.094;12.434;2023-12-20T03:26:06;34.83;;;15.90;;
61572;SDS011;47465;43.094;12.434;2023-12-20T03:28:32;29.88;;;15.00;;
61572;SDS011;47465;43.094;12.434;2023-12-20T03:31:00;29.95;;;14.65;;
61572;SDS011;47465;43.094;12.434;2023-12-20T03:33:27;30.50;;;15.35;;
61572;SDS011;47465;43.094;12.434;2023-12-20T03:35:53;31.25;;;14.63;;
61572;SDS011;47465;43.094;12.434;2023-12-20T03:38:19;30.63;;;15.73;;
61572;SDS011;47465;43.094;12.434;2023-12-20T03:40:45;27.65;;;14.68;;
61572;SDS011;47465;43.094;12.434;2023-12-20T03:43:11;28.38;;;15.02;;
61572;SDS011;47465;43.094;12.434;2023-12-20T03:45:37;29.67;;;14.30;;
61572;SDS011;47465;43.094;12.434;2023-12-20T03:48:05;26.52;;;13.82;;
61572;SDS011;47465;43.094;12.434;2023-12-20T03:50:31;30.60;;;15.13;;
61572;SDS011;47465;43.094;12.434;2023-12-20T03:52:57;25.77;;;14.75;;
61572;SDS011;47465;43.094;12.434;2023-12-20T03:55:23;27.35;;;14.85;;
61572;SDS011;47465;43.094;12.434;2023-12-20T03:57:48;25.85;;;14.75;;
61572;SDS011;47465;43.094;12.434;2023-12-20T04:00:17;30.85;;;16.23;;
61572;SDS011;47465;43.094;12.434;2023-12-20T04:02:43;26.23;;;14.30;;
61572;SDS011;47465;43.094;12.434;2023-12-20T04:05:11;26.20;;;13.60;;
61572;SDS011;47465;43.094;12.434;2023-12-20T04:07:37;30.40;;;14.20;;
61572;SDS011;47465;43.094;12.434;2023-12-20T04:10:03;23.67;;;13.02;;
61572;SDS011;47465;43.094;12.434;2023-12-20T04:12:30;25.88;;;13.75;;
61572;SDS011;47465;43.094;12.434;2023-12-20T04:14:56;23.77;;;13.63;;
61572;SDS011;47465;43.094;12.434;2023-12-20T04:17:22;26.75;;;15.40;;
61572;SDS011;47465;43.094;12.434;2023-12-20T04:19:48;25.48;;;14.18;;
61572;SDS011;47465;43.094;12.434;2023-12-20T04:22:15;24.90;;;13.05;;
61572;SDS011;47465;43.094;12.434;2023-12-20T04:24:41;29.60;;;13.40;;
61572;SDS011;47465;43.094;12.434;2023-12-20T04:27:08;27.60;;;13.63;;
61572;SDS011;47465;43.094;12.434;2023-12-20T04:29:34;24.75;;;13.38;;
61572;SDS011;47465;43.094;12.434;2023-12-20T04:31:59;27.73;;;12.73;;
61572;SDS011;47465;43.094;12.434;2023-12-20T04:34:25;24.45;;;12.18;;
61572;SDS011;47465;43.094;12.434;2023-12-20T04:36:51;24.75;;;11.75;;
61572;SDS011;47465;43.094;12.434;2023-12-20T04:39:19;22.73;;;12.35;;
61572;SDS011;47465;43.094;12.434;2023-12-20T04:41:45;20.20;;;11.63;;
61572;SDS011;47465;43.094;12.434;2023-12-20T04:44:12;31.85;;;13.50;;
61572;SDS011;47465;43.094;12.434;2023-12-20T04:46:38;24.42;;;12.52;;
61572;SDS011;47465;43.094;12.434;2023-12-20T04:49:04;32.50;;;13.32;;
61572;SDS011;47465;43.094;12.434;2023-12-20T04:51:32;22.85;;;11.88;;
61572;SDS011;47465;43.094;12.434;2023-12-20T04:53:59;25.95;;;12.93;;
61572;SDS011;47465;43.094;12.434;2023-12-20T04:56:26;21.25;;;11.35;;
61572;SDS011;47465;43.094;12.434;2023-12-20T04:58:52;25.05;;;11.65;;
61572;SDS011;47465;43.094;12.434;2023-12-20T05:01:17;22.25;;;11.73;;
61572;SDS011;47465;43.094;12.434;2023-12-20T05:03:43;20.90;;;11.88;;
61572;SDS011;47465;43.094;12.434;2023-12-20T05:06:09;22.63;;;11.43;;
61572;SDS011;47465;43.094;12.434;2023-12-20T05:08:35;22.42;;;11.05;;
61572;SDS011;47465;43.094;12.434;2023-12-20T05:11:01;20.23;;;10.82;;
61572;SDS011;47465;43.094;12.434;2023-12-20T05:13:29;20.60;;;11.13;;
61572;SDS011;47465;43.094;12.434;2023-12-20T05:15:55;25.85;;;13.25;;
61572;SDS011;47465;43.094;12.434;2023-12-20T05:18:21;24.65;;;13.75;;
61572;SDS011;47465;43.094;12.434;2023-12-20T05:20:48;27.60;;;12.82;;
61572;SDS011;47465;43.094;12.434;2023-12-20T05:23:14;25.80;;;12.45;;
61572;SDS011;47465;43.094;12.434;2023-12-20T05:25:40;26.27;;;13.52;;
61572;SDS011;47465;43.094;12.434;2023-12-20T05:28:06;27.88;;;13.40;;
61572;SDS011;47465;43.094;12.434;2023-12-20T05:30:33;29.88;;;13.68;;
61572;SDS011;47465;43.094;12.434;2023-12-20T05:32:59;26.02;;;13.63;;
61572;SDS011;47465;43.094;12.434;2023-12-20T05:35:25;26.10;;;12.27;;
61572;SDS011;47465;43.094;12.434;2023-12-20T05:37:50;27.25;;;13.38;;
61572;SDS011;47465;43.094;12.434;2023-12-20T05:40:16;25.00;;;12.65;;
61572;SDS011;47465;43.094;12.434;2023-12-20T05:42:42;29.17;;;13.82;;
61572;SDS011;47465;43.094;12.434;2023-12-20T05:45:08;23.48;;;13.10;;
61572;SDS011;47465;43.094;12.434;2023-12-20T05:47:36;21.38;;;12.27;;
61572;SDS011;47465;43.094;12.434;2023-12-20T05:50:02;23.55;;;12.20;;
61572;SDS011;47465;43.094;12.434;2023-12-20T05:52:29;23.13;;;12.27;;
61572;SDS011;47465;43.094;12.434;2023-12-20T05:54:55;25.23;;;12.95;;
61572;SDS011;47465;43.094;12.434;2023-12-20T05:57:23;20.55;;;12.02;;
61572;SDS011;47465;43.094;12.434;2023-12-20T05:59:48;26.75;;;13.40;;
61572;SDS011;47465;43.094;12.434;2023-12-20T06:02:14;25.98;;;12.23;;
61572;SDS011;47465;43.094;12.434;2023-12-20T06:04:43;24.95;;;12.35;;
61572;SDS011;47465;43.094;12.434;2023-12-20T06:07:11;24.17;;;12.32;;
61572;SDS011;47465;43.094;12.434;2023-12-20T06:09:37;24.58;;;12.82;;
61572;SDS011;47465;43.094;12.434;2023-12-20T06:12:02;26.35;;;12.60;;
61572;SDS011;47465;43.094;12.434;2023-12-20T06:14:29;25.02;;;13.25;;
61572;SDS011;47465;43.094;12.434;2023-12-20T06:16:56;24.50;;;14.02;;
61572;SDS011;47465;43.094;12.434;2023-12-20T06:19:22;24.92;;;13.63;;
61572;SDS011;47465;43.094;12.434;2023-12-20T06:21:49;26.27;;;13.02;;
61572;SDS011;47465;43.094;12.434;2023-12-20T06:24:15;29.77;;;14.45;;
61572;SDS011;47465;43.094;12.434;2023-12-20T06:26:41;29.88;;;14.55;;
61572;SDS011;47465;43.094;12.434;2023-12-20T06:29:07;28.88;;;14.40;;
61572;SDS011;47465;43.094;12.434;2023-12-20T06:31:33;30.25;;;14.32;;
61572;SDS011;47465;43.094;12.434;2023-12-20T06:33:58;29.58;;;14.40;;
61572;SDS011;47465;43.094;12.434;2023-12-20T06:36:25;28.25;;;14.27;;
61572;SDS011;47465;43.094;12.434;2023-12-20T06:38:54;27.23;;;14.15;;
61572;SDS011;47465;43.094;12.434;2023-12-20T06:41:20;27.35;;;14.00;;
61572;SDS011;47465;43.094;12.434;2023-12-20T06:43:45;31.73;;;14.48;;
61572;SDS011;47465;43.094;12.434;2023-12-20T06:46:12;28.63;;;15.60;;
61572;SDS011;47465;43.094;12.434;2023-12-20T06:48:38;29.85;;;15.15;;
61572;SDS011;47465;43.094;12.434;2023-12-20T06:51:05;30.08;;;15.20;;
61572;SDS011;47465;43.094;12.434;2023-12-20T06:53:31;32.58;;;15.55;;
61572;SDS011;47465;43.094;12.434;2023-12-20T06:55:58;32.20;;;15.75;;
61572;SDS011;47465;43.094;12.434;2023-12-20T06:58:24;34.03;;;15.85;;
61572;SDS011;47465;43.094;12.434;2023-12-20T07:00:50;30.02;;;14.82;;
61572;SDS011;47465;43.094;12.434;2023-12-20T07:03:16;32.30;;;15.30;;
61572;SDS011;47465;43.094;12.434;2023-12-20T07:05:43;45.00;;;18.67;;
61572;SDS011;47465;43.094;12.434;2023-12-20T07:08:09;31.70;;;16.55;;
61572;SDS011;47465;43.094;12.434;2023-12-20T07:10:35;33.78;;;16.42;;
61572;SDS011;47465;43.094;12.434;2023-12-20T07:13:03;42.35;;;18.58;;
61572;SDS011;47465;43.094;12.434;2023-12-20T07:15:32;43.05;;;18.85;;
61572;SDS011;47465;43.094;12.434;2023-12-20T07:17:58;45.38;;;20.38;;
61572;SDS011;47465;43.094;12.434;2023-12-20T07:20:25;38.08;;;18.92;;
61572;SDS011;47465;43.094;12.434;2023-12-20T07:22:54;50.67;;;24.38;;
61572;SDS011;47465;43.094;12.434;2023-12-20T07:25:20;41.90;;;21.13;;
61572;SDS011;47465;43.094;12.434;2023-12-20T07:27:46;35.10;;;19.27;;
61572;SDS011;47465;43.094;12.434;2023-12-20T07:30:14;36.08;;;18.65;;
61572;SDS011;47465;43.094;12.434;2023-12-20T07:32:40;43.80;;;19.83;;
61572;SDS011;47465;43.094;12.434;2023-12-20T07:35:06;34.40;;;16.23;;
61572;SDS011;47465;43.094;12.434;2023-12-20T07:37:32;30.65;;;16.00;;
61572;SDS011;47465;43.094;12.434;2023-12-20T07:39:58;30.92;;;16.10;;
61572;SDS011;47465;43.094;12.434;2023-12-20T07:42:24;40.75;;;20.58;;
61572;SDS011;47465;43.094;12.434;2023-12-20T07:44:50;40.65;;;21.30;;
61572;SDS011;47465;43.094;12.434;2023-12-20T07:47:17;42.65;;;19.65;;
61572;SDS011;47465;43.094;12.434;2023-12-20T07:49:46;43.15;;;21.27;;
61572;SDS011;47465;43.094;12.434;2023-12-20T07:52:13;41.65;;;20.88;;
61572;SDS011;47465;43.094;12.434;2023-12-20T07:54:39;44.10;;;21.58;;
61572;SDS011;47465;43.094;12.434;2023-12-20T07:57:05;40.42;;;20.90;;
61572;SDS011;47465;43.094;12.434;2023-12-20T07:59:31;36.78;;;20.05;;
61572;SDS011;47465;43.094;12.434;2023-12-20T08:01:57;42.25;;;23.10;;
61572;SDS011;47465;43.094;12.434;2023-12-20T08:04:24;44.47;;;22.65;;
61572;SDS011;47465;43.094;12.434;2023-12-20T08:06:50;41.80;;;20.98;;
61572;SDS011;47465;43.094;12.434;2023-12-20T08:09:16;44.90;;;21.77;;
61572;SDS011;47465;43.094;12.434;2023-12-20T08:11:44;51.33;;;22.40;;
61572;SDS011;47465;43.094;12.434;2023-12-20T08:14:10;47.00;;;24.67;;
61572;SDS011;47465;43.094;12.434;2023-12-20T08:16:36;47.35;;;20.48;;
61572;SDS011;47465;43.094;12.434;2023-12-20T08:19:02;36.47;;;17.13;;
61572;SDS011;47465;43.094;12.434;2023-12-20T08:21:29;36.50;;;17.40;;
61572;SDS011;47465;43.094;12.434;2023-12-20T08:23:55;38.00;;;19.08;;
61572;SDS011;47465;43.094;12.434;2023-12-20T08:26:21;46.38;;;21.25;;
61572;SDS011;47465;43.094;12.434;2023-12-20T08:28:48;48.63;;;23.58;;
61572;SDS011;47465;43.094;12.434;2023-12-20T08:31:17;49.03;;;21.85;;
61572;SDS011;47465;43.094;12.434;2023-12-20T08:33:44;52.13;;;24.10;;
61572;SDS011;47465;43.094;12.434;2023-12-20T08:36:14;43.67;;;20.55;;
61572;SDS011;47465;43.094;12.434;2023-12-20T08:38:41;53.92;;;26.10;;
61572;SDS011;47465;43.094;12.434;2023-12-20T08:41:07;41.25;;;21.42;;
61572;SDS011;47465;43.094;12.434;2023-12-20T08:43:33;35.67;;;20.45;;
61572;SDS011;47465;43.094;12.434;2023-12-20T08:46:00;43.58;;;21.13;;
61572;SDS011;47465;43.094;12.434;2023-12-20T08:48:26;40.10;;;20.23;;
61572;SDS011;47465;43.094;12.434;2023-12-20T08:50:52;37.63;;;19.50;;
61572;SDS011;47465;43.094;12.434;2023-12-20T08:53:20;44.78;;;21.70;;
61572;SDS011;47465;43.094;12.434;2023-12-20T08:55:48;43.05;;;21.52;;
61572;SDS011;47465;43.094;12.434;2023-12-20T08:58:17;47.33;;;23.55;;
61572;SDS011;47465;43.094;12.434;2023-12-20T09:00:42;48.25;;;22.85;;
61572;SDS011;47465;43.094;12.434;2023-12-20T09:03:11;44.20;;;21.80;;
61572;SDS011;47465;43.094;12.434;2023-12-20T09:05:37;41.78;;;21.98;;
61572;SDS011;47465;43.094;12.434;2023-12-20T09:08:03;48.67;;;23.95;;
61572;SDS011;47465;43.094;12.434;2023-12-20T09:10:32;57.78;;;24.45;;
61572;SDS011;47465;43.094;12.434;2023-12-20T09:13:00;55.45;;;25.13;;
61572;SDS011;47465;43.094;12.434;2023-12-20T09:15:26;51.70;;;24.92;;
61572;SDS011;47465;43.094;12.434;2023-12-20T09:17:52;58.40;;;27.45;;
61572;SDS011;47465;43.094;12.434;2023-12-20T09:20:19;63.53;;;31.52;;
61572;SDS011;47465;43.094;12.434;2023-12-20T09:22:45;62.10;;;30.52;;
61572;SDS011;47465;43.094;12.434;2023-12-20T09:25:11;64.32;;;29.73;;
61572;SDS011;47465;43.094;12.434;2023-12-20T09:27:38;69.38;;;31.42;;
61572;SDS011;47465;43.094;12.434;2023-12-20T09:30:06;73.93;;;32.15;;
61572;SDS011;47465;43.094;12.434;2023-12-20T09:32:32;66.63;;;30.20;;
61572;SDS011;47465;43.094;12.434;2023-12-20T09:34:59;66.75;;;31.17;;
61572;SDS011;47465;43.094;12.434;2023-12-20T09:37:26;72.10;;;33.20;;
61572;SDS011;47465;43.094;12.434;2023-12-20T09:39:52;89.22;;;38.88;;
61572;SDS011;47465;43.094;12.434;2023-12-20T09:42:20;99.90;;;45.97;;
61572;SDS011;47465;43.094;12.434;2023-12-20T09:44:50;117.88;;;47.42;;
61572;SDS011;47465;43.094;12.434;2023-12-20T09:47:17;117.15;;;48.08;;
61572;SDS011;47465;43.094;12.434;2023-12-20T09:49:48;120.45;;;52.90;;
61572;SDS011;47465;43.094;12.434;2023-12-20T09:52:15;112.03;;;48.90;;
61572;SDS011;47465;43.094;12.434;2023-12-20T09:54:42;96.13;;;39.47;;
61572;SDS011;47465;43.094;12.434;2023-12-20T09:57:09;109.60;;;47.28;;
61572;SDS011;47465;43.094;12.434;2023-12-20T09:59:35;75.53;;;37.08;;
61572;SDS011;47465;43.094;12.434;2023-12-20T10:02:01;85.18;;;33.58;;
61572;SDS011;47465;43.094;12.434;2023-12-20T10:04:31;73.18;;;33.50;;
61572;SDS011;47465;43.094;12.434;2023-12-20T10:07:01;82.43;;;34.20;;
61572;SDS011;47465;43.094;12.434;2023-12-20T10:09:29;71.82;;;34.60;;
61572;SDS011;47465;43.094;12.434;2023-12-20T10:11:59;79.68;;;38.10;;
61572;SDS011;47465;43.094;12.434;2023-12-20T10:14:25;65.55;;;32.92;;
61572;SDS011;47465;43.094;12.434;2023-12-20T10:16:51;59.85;;;28.38;;
61572;SDS011;47465;43.094;12.434;2023-12-20T10:19:19;66.10;;;29.95;;
61572;SDS011;47465;43.094;12.434;2023-12-20T10:21:46;67.15;;;31.33;;
61572;SDS011;47465;43.094;12.434;2023-12-20T10:24:16;63.28;;;30.30;;
61572;SDS011;47465;43.094;12.434;2023-12-20T10:26:42;72.55;;;30.27;;
61572;SDS011;47465;43.094;12.434;2023-12-20T10:29:08;66.13;;;28.88;;
61572;SDS011;47465;43.094;12.434;2023-12-20T10:31:35;54.20;;;29.25;;
61572;SDS011;47465;43.094;12.434;2023-12-20T10:34:04;59.28;;;26.70;;
61572;SDS011;47465;43.094;12.434;2023-12-20T10:36:30;57.67;;;28.80;;
61572;SDS011;47465;43.094;12.434;2023-12-20T10:38:58;63.15;;;32.85;;
61572;SDS011;47465;43.094;12.434;2023-12-20T10:41:29;59.40;;;30.70;;
61572;SDS011;47465;43.094;12.434;2023-12-20T10:51:24;63.33;;;28.13;;
61572;SDS011;47465;43.094;12.434;2023-12-20T10:53:52;59.63;;;27.50;;
61572;SDS011;47465;43.094;12.434;2023-12-20T10:56:20;60.45;;;30.60;;
61572;SDS011;47465;43.094;12.434;2023-12-20T10:58:46;63.83;;;31.70;;
61572;SDS011;47465;43.094;12.434;2023-12-20T12:04:45;37.50;;;20.52;;
61572;SDS011;47465;43.094;12.434;2023-12-20T12:09:39;37.00;;;19.35;;
61572;SDS011;47465;43.094;12.434;2023-12-20T12:12:06;40.17;;;20.33;;
61572;SDS011;47465;43.094;12.434;2023-12-20T12:14:33;32.50;;;19.02;;
61572;SDS011;47465;43.094;12.434;2023-12-20T12:17:00;39.53;;;21.23;;
61572;SDS011;47465;43.094;12.434;2023-12-20T12:19:26;35.70;;;19.60;;
61572;SDS011;47465;43.094;12.434;2023-12-20T12:22:04;39.00;;;19.38;;
61572;SDS011;47465;43.094;12.434;2023-12-20T12:24:36;40.90;;;20.33;;
61572;SDS011;47465;43.094;12.434;2023-12-20T12:27:02;36.30;;;18.75;;
61572;SDS011;47465;43.094;12.434;2023-12-20T12:29:28;31.73;;;18.13;;
61572;SDS011;47465;43.094;12.434;2023-12-20T12:31:55;35.92;;;17.38;;
61572;SDS011;47465;43.094;12.434;2023-12-20T12:34:21;33.50;;;19.13;;
61572;SDS011;47465;43.094;12.434;2023-12-20T12:36:47;29.63;;;17.60;;
61572;SDS011;47465;43.094;12.434;2023-12-20T12:39:15;31.98;;;18.55;;
61572;SDS011;47465;43.094;12.434;2023-12-20T12:41:42;34.00;;;18.85;;
61572;SDS011;47465;43.094;12.434;2023-12-20T12:44:08;38.90;;;20.27;;
61572;SDS011;47465;43.094;12.434;2023-12-20T12:46:34;37.40;;;20.90;;
61572;SDS011;47465;43.094;12.434;2023-12-20T12:49:00;31.73;;;18.60;;
61572;SDS011;47465;43.094;12.434;2023-12-20T12:51:26;37.25;;;18.80;;
61572;SDS011;47465;43.094;12.434;2023-12-20T12:53:52;36.20;;;20.00;;
61572;SDS011;47465;43.094;12.434;2023-12-20T12:56:20;37.45;;;18.45;;
61572;SDS011;47465;43.094;12.434;2023-12-20T12:58:47;34.20;;;19.35;;
61572;SDS011;47465;43.094;12.434;2023-12-20T13:01:13;34.75;;;18.40;;
61572;SDS011;47465;43.094;12.434;2023-12-20T13:03:39;34.83;;;19.15;;
61572;SDS011;47465;43.094;12.434;2023-12-20T13:06:05;34.65;;;19.25;;
61572;SDS011;47465;43.094;12.434;2023-12-20T13:08:34;33.70;;;18.85;;
61572;SDS011;47465;43.094;12.434;2023-12-20T13:11:00;34.42;;;19.27;;
61572;SDS011;47465;43.094;12.434;2023-12-20T13:13:27;37.60;;;19.23;;
61572;SDS011;47465;43.094;12.434;2023-12-20T13:15:53;36.15;;;20.50;;
61572;SDS011;47465;43.094;12.434;2023-12-20T13:18:20;38.78;;;20.98;;
61572;SDS011;47465;43.094;12.434;2023-12-20T13:20:46;35.95;;;21.10;;
61572;SDS011;47465;43.094;12.434;2023-12-20T13:23:12;35.40;;;21.00;;
61572;SDS011;47465;43.094;12.434;2023-12-20T13:25:40;39.42;;;20.55;;
61572;SDS011;47465;43.094;12.434;2023-12-20T13:28:06;42.10;;;21.70;;
61572;SDS011;47465;43.094;12.434;2023-12-20T13:30:35;41.28;;;20.83;;
61572;SDS011;47465;43.094;12.434;2023-12-20T13:33:01;36.10;;;20.45;;
61572;SDS011;47465;43.094;12.434;2023-12-20T13:35:26;39.85;;;20.83;;
61572;SDS011;47465;43.094;12.434;2023-12-20T13:37:52;36.67;;;19.77;;
61572;SDS011;47465;43.094;12.434;2023-12-20T13:40:18;30.95;;;18.45;;
61572;SDS011;47465;43.094;12.434;2023-12-20T13:42:44;34.60;;;19.48;;
61572;SDS011;47465;43.094;12.434;2023-12-20T13:45:10;36.65;;;19.75;;
61572;SDS011;47465;43.094;12.434;2023-12-20T13:47:38;35.88;;;18.30;;
61572;SDS011;47465;43.094;12.434;2023-12-20T13:50:04;36.55;;;18.70;;
61572;SDS011;47465;43.094;12.434;2023-12-20T13:52:31;33.65;;;18.10;;
61572;SDS011;47465;43.094;12.434;2023-12-20T13:54:56;34.97;;;18.25;;
61572;SDS011;47465;43.094;12.434;2023-12-20T13:57:22;37.35;;;18.55;;
61572;SDS011;47465;43.094;12.434;2023-12-20T13:59:48;33.15;;;17.48;;
61572;SDS011;47465;43.094;12.434;2023-12-20T14:02:14;37.65;;;19.70;;
61572;SDS011;47465;43.094;12.434;2023-12-20T14:04:43;33.20;;;17.42;;
61572;SDS011;47465;43.094;12.434;2023-12-20T14:07:09;31.70;;;16.92;;
61572;SDS011;47465;43.094;12.434;2023-12-20T14:09:35;33.67;;;17.20;;
61572;SDS011;47465;43.094;12.434;2023-12-20T14:12:01;35.45;;;18.52;;
61572;SDS011;47465;43.094;12.434;2023-12-20T14:14:28;32.35;;;18.10;;
61572;SDS011;47465;43.094;12.434;2023-12-20T14:16:54;33.03;;;17.85;;
61572;SDS011;47465;43.094;12.434;2023-12-20T14:19:20;30.33;;;18.10;;
61572;SDS011;47465;43.094;12.434;2023-12-20T14:21:47;40.60;;;23.00;;
61572;SDS011;47465;43.094;12.434;2023-12-20T14:24:13;36.47;;;18.70;;
61572;SDS011;47465;43.094;12.434;2023-12-20T14:26:40;37.65;;;19.30;;
61572;SDS011;47465;43.094;12.434;2023-12-20T14:29:06;39.28;;;19.20;;
61572;SDS011;47465;43.094;12.434;2023-12-20T14:31:32;31.33;;;18.77;;
61572;SDS011;47465;43.094;12.434;2023-12-20T14:33:58;34.25;;;18.08;;
61572;SDS011;47465;43.094;12.434;2023-12-20T14:36:26;34.45;;;18.77;;
61572;SDS011;47465;43.094;12.434;2023-12-20T14:38:54;37.50;;;19.00;;
61572;SDS011;47465;43.094;12.434;2023-12-20T14:41:22;36.92;;;20.13;;
61572;SDS011;47465;43.094;12.434;2023-12-20T14:43:49;33.13;;;18.67;;
61572;SDS011;47465;43.094;12.434;2023-12-20T14:46:17;41.50;;;20.60;;
61572;SDS011;47465;43.094;12.434;2023-12-20T14:48:44;35.63;;;21.17;;
61572;SDS011;47465;43.094;12.434;2023-12-20T14:51:13;34.30;;;17.75;;
61572;SDS011;47465;43.094;12.434;2023-12-20T14:53:39;32.50;;;17.27;;
61572;SDS011;47465;43.094;12.434;2023-12-20T14:56:07;36.90;;;19.13;;
61572;SDS011;47465;43.094;12.434;2023-12-20T14:58:34;31.33;;;18.42;;
61572;SDS011;47465;43.094;12.434;2023-12-20T15:01:02;26.98;;;15.40;;
61572;SDS011;47465;43.094;12.434;2023-12-20T15:03:28;32.17;;;17.25;;
61572;SDS011;47465;43.094;12.434;2023-12-20T15:05:55;29.95;;;16.08;;
61572;SDS011;47465;43.094;12.434;2023-12-20T15:08:23;32.38;;;17.17;;
61572;SDS011;47465;43.094;12.434;2023-12-20T15:10:49;31.42;;;17.02;;
61572;SDS011;47465;43.094;12.434;2023-12-20T15:13:17;31.25;;;17.13;;
61572;SDS011;47465;43.094;12.434;2023-12-20T15:15:43;29.08;;;15.80;;
61572;SDS011;47465;43.094;12.434;2023-12-20T15:18:10;36.72;;;19.35;;